createdAt,value
2019-05-06T00:00:56.659Z,13.00
2019-05-06T00:01:46.481Z,9.90
2019-05-06T00:02:46.455Z,10.00
2019-05-06T00:03:46.431Z,8.50
2019-05-06T00:04:46.415Z,10.40
2019-05-06T00:05:46.395Z,14.80
2019-05-06T00:06:46.373Z,13.10
2019-05-06T00:07:46.359Z,9.90
2019-05-06T00:08:46.334Z,10.90
2019-05-06T00:09:46.314Z,9.50
2019-05-06T00:10:46.298Z,13.10
2019-05-06T00:11:46.272Z,10.30
2019-05-06T00:12:46.257Z,11.00
2019-05-06T00:13:46.230Z,10.30
2019-05-06T00:14:46.218Z,14.20
2019-05-06T00:15:46.392Z,11.00
2019-05-06T00:16:46.170Z,12.90
2019-05-06T00:17:46.153Z,10.70
2019-05-06T00:18:46.146Z,13.10
2019-05-06T00:19:46.109Z,7.70
2019-05-06T00:20:46.094Z,10.40
2019-05-06T00:21:46.076Z,12.80
2019-05-06T00:23:46.633Z,12.50
2019-05-06T00:24:46.011Z,11.00
2019-05-06T00:25:45.989Z,10.80
2019-05-06T00:26:45.969Z,11.90
2019-05-06T00:27:45.943Z,10.20
2019-05-06T00:28:45.929Z,15.70
2019-05-06T00:29:46.844Z,10.40
2019-05-06T00:30:45.882Z,13.60
2019-05-06T00:31:45.861Z,9.90
2019-05-06T00:32:45.840Z,13.50
2019-05-06T00:33:45.821Z,10.60
2019-05-06T00:34:45.800Z,12.20
2019-05-06T00:35:45.781Z,13.80
2019-05-06T00:36:45.758Z,10.30
2019-05-06T00:37:46.063Z,10.50
2019-05-06T00:38:45.719Z,12.50
2019-05-06T00:39:46.033Z,11.50
2019-05-06T00:40:45.994Z,10.30
2019-05-06T00:41:45.971Z,10.70
2019-05-06T00:42:45.647Z,14.60
2019-05-06T00:43:45.616Z,9.20
2019-05-06T00:44:45.597Z,12.90
2019-05-06T00:45:45.572Z,11.00
2019-05-06T00:46:45.563Z,9.50
2019-05-06T00:47:45.848Z,10.70
2019-05-06T00:48:45.512Z,11.60
2019-05-06T00:49:45.489Z,11.20
2019-05-06T00:50:45.477Z,11.90
2019-05-06T00:51:45.455Z,11.20
2019-05-06T00:52:45.431Z,10.40
2019-05-06T00:53:45.411Z,16.70
2019-05-06T00:54:45.386Z,10.40
2019-05-06T00:55:45.369Z,12.40
2019-05-06T00:56:45.354Z,10.70
2019-05-06T00:57:45.327Z,12.30
2019-05-06T00:58:45.310Z,11.50
2019-05-06T00:59:45.290Z,13.40
2019-05-06T01:00:45.264Z,13.50
2019-05-06T01:01:45.246Z,14.50
2019-05-06T01:02:45.229Z,12.50
2019-05-06T01:03:45.204Z,10.80
2019-05-06T01:04:45.183Z,11.60
2019-05-06T01:05:45.167Z,10.70
2019-05-06T01:06:45.141Z,13.30
2019-05-06T01:07:45.125Z,15.30
2019-05-06T01:08:45.100Z,10.80
2019-05-06T01:09:45.079Z,17.00
2019-05-06T01:10:45.119Z,12.10
2019-05-06T01:11:45.037Z,13.90
2019-05-06T01:12:45.017Z,12.20
2019-05-06T01:13:44.998Z,13.00
2019-05-06T01:14:44.983Z,11.10
2019-05-06T01:15:44.961Z,12.90
2019-05-06T01:16:44.987Z,12.10
2019-05-06T01:17:44.914Z,11.10
2019-05-06T01:18:44.900Z,12.90
2019-05-06T01:19:45.793Z,10.70
2019-05-06T01:20:44.853Z,13.00
2019-05-06T01:21:44.890Z,15.00
2019-05-06T01:22:44.808Z,11.80
2019-05-06T01:23:44.789Z,14.20
2019-05-06T01:24:44.769Z,14.50
2019-05-06T01:25:44.747Z,13.10
2019-05-06T01:26:44.728Z,10.50
2019-05-06T01:27:44.704Z,11.50
2019-05-06T01:28:44.697Z,10.30
2019-05-06T01:29:44.661Z,11.60
2019-05-06T01:30:44.645Z,13.00
2019-05-06T01:31:46.181Z,13.20
2019-05-06T01:32:44.598Z,12.50
2019-05-06T01:33:45.255Z,10.40
2019-05-06T01:34:44.760Z,12.90
2019-05-06T01:35:44.540Z,12.60
2019-05-06T01:36:44.525Z,15.40
2019-05-06T01:37:44.497Z,15.60
2019-05-06T01:38:44.795Z,13.00
2019-05-06T01:39:44.462Z,15.10
2019-05-06T01:40:44.431Z,12.10
2019-05-06T01:41:44.751Z,10.80
2019-05-06T01:42:44.721Z,18.00
2019-05-06T01:43:44.374Z,17.60
2019-05-06T01:44:44.400Z,12.50
2019-05-06T01:45:44.327Z,13.50
2019-05-06T01:46:44.799Z,13.40
2019-05-06T01:47:44.290Z,13.00
2019-05-06T01:48:44.357Z,17.90
2019-05-06T01:49:44.328Z,13.80
2019-05-06T01:50:44.525Z,10.80
2019-05-06T01:51:44.205Z,14.30
2019-05-06T01:52:44.339Z,12.80
2019-05-06T01:53:44.852Z,13.50
2019-05-06T01:54:44.140Z,13.10
2019-05-06T01:55:44.124Z,10.10
2019-05-06T01:56:44.550Z,13.60
2019-05-06T01:57:44.491Z,15.10
2019-05-06T01:58:44.060Z,16.10
2019-05-06T01:59:44.424Z,11.90
2019-05-06T02:00:44.015Z,12.80
2019-05-06T02:01:57.407Z,17.80
2019-05-06T02:02:44.032Z,13.30
2019-05-06T02:03:44.364Z,12.40
2019-05-06T02:04:44.393Z,12.10
2019-05-06T02:05:44.486Z,15.20
2019-05-06T02:06:43.963Z,13.00
2019-05-06T02:07:44.231Z,13.90
2019-05-06T02:08:44.896Z,13.50
2019-05-06T02:09:44.785Z,12.80
2019-05-06T02:10:43.803Z,15.20
2019-05-06T02:11:45.155Z,11.20
2019-05-06T02:12:44.349Z,11.90
2019-05-06T02:13:44.308Z,12.20
2019-05-06T02:14:43.815Z,13.80
2019-05-06T02:15:44.944Z,13.60
2019-05-06T02:16:43.769Z,14.00
2019-05-06T02:17:44.223Z,14.30
2019-05-06T02:18:44.927Z,12.50
2019-05-06T02:19:43.908Z,12.90
2019-05-06T02:20:44.535Z,14.20
2019-05-06T02:21:43.896Z,14.00
2019-05-06T02:22:44.282Z,14.00
2019-05-06T02:23:44.173Z,15.20
2019-05-06T02:24:43.964Z,19.00
2019-05-06T02:25:44.655Z,15.50
2019-05-06T02:26:43.736Z,15.90
2019-05-06T02:27:44.547Z,11.20
2019-05-06T02:28:43.611Z,13.30
2019-05-06T02:29:43.519Z,16.50
2019-05-06T02:30:45.369Z,11.10
2019-05-06T02:31:46.058Z,15.40
2019-05-06T02:32:45.372Z,14.00
2019-05-06T02:33:44.812Z,15.00
2019-05-06T02:34:45.845Z,13.60
2019-05-06T02:35:45.431Z,13.60
2019-05-06T02:36:45.506Z,13.20
2019-05-06T02:37:46.112Z,14.40
2019-05-06T02:38:48.079Z,16.70
2019-05-06T02:39:43.979Z,15.40
2019-05-06T02:40:43.172Z,16.30
2019-05-06T02:41:43.207Z,15.00
2019-05-06T02:42:43.276Z,13.50
2019-05-06T02:43:43.593Z,15.40
2019-05-06T02:44:44.071Z,13.90
2019-05-06T02:45:43.374Z,13.30
2019-05-06T02:46:44.068Z,13.40
2019-05-06T02:47:43.152Z,11.50
2019-05-06T02:48:43.414Z,13.40
2019-05-06T02:49:44.230Z,13.00
2019-05-06T02:50:42.962Z,13.70
2019-05-06T02:51:44.259Z,13.50
2019-05-06T02:52:44.011Z,15.20
2019-05-06T02:53:43.176Z,17.20
2019-05-06T02:54:42.958Z,14.90
2019-05-06T02:55:43.177Z,12.90
2019-05-06T02:56:43.523Z,15.20
2019-05-06T02:57:44.001Z,14.40
2019-05-06T02:58:43.692Z,17.20
2019-05-06T02:59:44.186Z,13.00
2019-05-06T03:00:43.214Z,13.10
2019-05-06T03:01:43.436Z,14.70
2019-05-06T03:02:47.051Z,14.30
2019-05-06T03:03:43.651Z,15.00
2019-05-06T03:04:43.737Z,14.30
2019-05-06T03:05:43.975Z,16.30
2019-05-06T03:06:44.744Z,15.80
2019-05-06T03:07:43.496Z,14.70
2019-05-06T03:08:43.365Z,12.30
2019-05-06T03:09:44.527Z,12.10
2019-05-06T03:10:44.177Z,12.70
2019-05-06T03:11:43.793Z,11.50
2019-05-06T03:12:43.171Z,17.00
2019-05-06T03:13:43.759Z,14.40
2019-05-06T03:14:43.649Z,15.20
2019-05-06T03:15:43.367Z,15.30
2019-05-06T03:16:43.984Z,17.20
2019-05-06T03:17:43.524Z,12.40
2019-05-06T03:18:43.350Z,11.60
2019-05-06T03:19:45.763Z,12.80
2019-05-06T03:20:43.893Z,15.00
2019-05-06T03:21:44.804Z,15.10
2019-05-06T03:22:43.598Z,13.80
2019-05-06T03:23:43.758Z,13.30
2019-05-06T03:24:43.654Z,12.20
2019-05-06T03:25:43.964Z,11.30
2019-05-06T03:26:43.882Z,15.80
2019-05-06T03:27:43.837Z,12.40
2019-05-06T03:28:44.098Z,12.50
2019-05-06T03:29:44.443Z,11.90
2019-05-06T03:30:45.750Z,14.80
2019-05-06T03:31:46.409Z,13.60
2019-05-06T03:33:20.971Z,14.80
2019-05-06T03:33:59.568Z,16.30
2019-05-06T03:35:00.547Z,13.90
2019-05-06T03:35:57.650Z,14.50
2019-05-06T03:36:48.141Z,14.20
2019-05-06T03:37:44.015Z,14.40
2019-05-06T03:38:43.144Z,13.30
2019-05-06T03:39:43.342Z,14.30
2019-05-06T03:40:45.641Z,13.60
2019-05-06T03:41:43.786Z,14.90
2019-05-06T03:42:42.701Z,15.50
2019-05-06T03:43:43.446Z,14.10
2019-05-06T03:44:43.628Z,13.00
2019-05-06T03:45:42.859Z,14.80
2019-05-06T03:46:43.033Z,16.20
2019-05-06T03:47:43.361Z,12.10
2019-05-06T03:48:44.267Z,12.30
2019-05-06T03:49:42.607Z,12.60
2019-05-06T03:50:44.013Z,15.90
2019-05-06T03:51:42.979Z,15.20
2019-05-06T03:52:43.021Z,12.80
2019-05-06T03:53:43.422Z,15.40
2019-05-06T03:54:45.014Z,13.00
2019-05-06T03:55:43.725Z,14.30
2019-05-06T03:56:43.288Z,16.10
2019-05-06T03:57:42.789Z,14.80
2019-05-06T03:58:43.457Z,13.80
2019-05-06T03:59:43.597Z,14.50
2019-05-06T04:00:43.786Z,13.50
2019-05-06T04:01:42.911Z,15.40
2019-05-06T04:02:43.506Z,16.80
2019-05-06T04:03:47.544Z,13.50
2019-05-06T04:04:44.017Z,14.10
2019-05-06T04:05:43.739Z,14.90
2019-05-06T04:06:43.596Z,16.60
2019-05-06T04:07:45.500Z,16.80
2019-05-06T04:08:43.702Z,15.50
2019-05-06T04:09:44.098Z,13.60
2019-05-06T04:10:43.579Z,15.40
2019-05-06T04:11:43.277Z,14.00
2019-05-06T04:12:43.441Z,17.10
2019-05-06T04:13:43.569Z,15.30
2019-05-06T04:14:43.301Z,14.40
2019-05-06T04:15:43.080Z,15.90
2019-05-06T04:16:44.115Z,16.80
2019-05-06T04:17:43.962Z,17.10
2019-05-06T04:18:43.716Z,15.00
2019-05-06T04:19:43.578Z,16.00
2019-05-06T04:20:43.606Z,21.30
2019-05-06T04:21:43.565Z,17.80
2019-05-06T04:22:43.786Z,14.80
2019-05-06T04:23:43.472Z,13.70
2019-05-06T04:24:43.063Z,13.70
2019-05-06T04:25:43.470Z,15.20
2019-05-06T04:26:46.066Z,19.20
2019-05-06T04:27:42.970Z,18.10
2019-05-06T04:28:43.338Z,14.40
2019-05-06T04:29:42.812Z,15.90
2019-05-06T04:30:42.821Z,19.00
2019-05-06T04:31:43.373Z,18.10
2019-05-06T04:32:43.404Z,17.40
2019-05-06T04:33:40.770Z,15.20
2019-05-06T04:34:43.048Z,15.30
2019-05-06T04:35:43.021Z,17.60
2019-05-06T04:36:43.781Z,17.10
2019-05-06T04:37:42.912Z,18.50
2019-05-06T04:38:43.338Z,17.00
2019-05-06T04:39:43.286Z,17.10
2019-05-06T04:40:43.669Z,17.10
2019-05-06T04:41:43.341Z,18.60
2019-05-06T04:42:43.914Z,14.80
2019-05-06T04:43:43.593Z,18.20
2019-05-06T04:44:43.688Z,18.20
2019-05-06T04:45:43.037Z,16.00
2019-05-06T04:46:44.009Z,16.50
2019-05-06T04:47:43.251Z,17.20
2019-05-06T04:48:43.200Z,14.80
2019-05-06T04:49:43.445Z,15.30
2019-05-06T04:50:40.401Z,16.40
2019-05-06T04:51:43.136Z,16.50
2019-05-06T04:52:42.918Z,16.00
2019-05-06T04:53:43.771Z,15.20
2019-05-06T04:54:40.316Z,17.20
2019-05-06T04:55:43.336Z,14.20
2019-05-06T04:56:40.270Z,15.60
2019-05-06T04:57:40.253Z,18.70
2019-05-06T04:58:42.720Z,13.40
2019-05-06T04:59:43.099Z,15.20
2019-05-06T05:00:40.197Z,15.20
2019-05-06T05:01:40.171Z,14.40
2019-05-06T05:02:43.032Z,17.30
2019-05-06T05:03:42.581Z,15.00
2019-05-06T05:04:43.081Z,18.70
2019-05-06T05:05:40.084Z,15.90
2019-05-06T05:06:40.061Z,14.50
2019-05-06T05:07:42.388Z,11.90
2019-05-06T05:08:42.561Z,13.90
2019-05-06T05:09:42.806Z,14.30
2019-05-06T05:10:39.983Z,23.60
2019-05-06T05:11:42.353Z,24.00
2019-05-06T05:12:39.933Z,14.20
2019-05-06T05:13:39.916Z,19.80
2019-05-06T05:14:39.891Z,17.00
2019-05-06T05:15:41.712Z,15.90
2019-05-06T05:16:41.991Z,18.50
2019-05-06T05:17:41.995Z,16.90
2019-05-06T05:18:39.807Z,13.60
2019-05-06T05:19:39.801Z,16.20
2019-05-06T05:20:45.664Z,15.50
2019-05-06T05:21:39.740Z,16.30
2019-05-06T05:22:42.209Z,20.90
2019-05-06T05:23:39.702Z,19.90
2019-05-06T05:24:39.690Z,17.70
2019-05-06T05:25:39.664Z,16.60
2019-05-06T05:26:39.638Z,17.10
2019-05-06T05:27:39.615Z,16.80
2019-05-06T05:28:39.593Z,15.20
2019-05-06T05:29:39.576Z,16.80
2019-05-06T05:30:39.552Z,14.90
2019-05-06T05:31:39.533Z,16.00
2019-05-06T05:32:39.510Z,17.10
2019-05-06T05:33:39.491Z,21.60
2019-05-06T05:34:40.833Z,16.00
2019-05-06T05:35:39.446Z,15.80
2019-05-06T05:36:39.425Z,17.70
2019-05-06T05:37:39.406Z,16.10
2019-05-06T05:38:39.379Z,18.20
2019-05-06T05:39:39.366Z,16.70
2019-05-06T05:40:39.342Z,14.60
2019-05-06T05:41:39.318Z,12.60
2019-05-06T05:42:39.307Z,16.90
2019-05-06T05:43:39.733Z,16.00
2019-05-06T05:44:39.259Z,14.60
2019-05-06T05:45:39.237Z,15.00
2019-05-06T05:46:39.215Z,15.60
2019-05-06T05:47:39.193Z,15.70
2019-05-06T05:48:39.179Z,14.30
2019-05-06T05:49:39.154Z,16.00
2019-05-06T05:50:39.132Z,15.80
2019-05-06T05:51:39.108Z,15.70
2019-05-06T05:52:39.090Z,17.40
2019-05-06T05:53:39.068Z,19.10
2019-05-06T05:54:39.044Z,16.60
2019-05-06T05:55:39.035Z,17.30
2019-05-06T05:56:39.005Z,15.00
2019-05-06T05:57:38.979Z,16.00
2019-05-06T05:58:38.962Z,14.20
2019-05-06T05:59:38.950Z,16.60
2019-05-06T06:00:38.930Z,18.90
2019-05-06T06:01:38.908Z,25.00
2019-05-06T06:02:38.875Z,20.00
2019-05-06T06:03:38.878Z,16.70
2019-05-06T06:04:53.429Z,17.00
2019-05-06T06:05:38.822Z,14.50
2019-05-06T06:06:38.788Z,13.60
2019-05-06T06:07:38.768Z,14.70
2019-05-06T06:08:38.747Z,15.40
2019-05-06T06:09:38.726Z,15.20
2019-05-06T06:10:38.705Z,17.60
2019-05-06T06:11:38.697Z,21.90
2019-05-06T06:12:38.667Z,13.20
2019-05-06T06:13:38.642Z,17.00
2019-05-06T06:14:38.627Z,17.30
2019-05-06T06:15:38.602Z,15.90
2019-05-06T06:16:38.600Z,18.30
2019-05-06T06:17:38.558Z,18.30
2019-05-06T06:18:38.539Z,19.20
2019-05-06T06:19:38.519Z,16.70
2019-05-06T06:20:38.507Z,19.20
2019-05-06T06:21:38.477Z,16.90
2019-05-06T06:22:38.455Z,18.50
2019-05-06T06:23:38.435Z,20.30
2019-05-06T06:24:38.414Z,16.40
2019-05-06T06:25:38.396Z,14.70
2019-05-06T06:26:38.367Z,17.50
2019-05-06T06:27:38.353Z,20.10
2019-05-06T06:28:38.327Z,16.50
2019-05-06T06:29:38.306Z,15.20
2019-05-06T06:30:38.294Z,17.80
2019-05-06T06:31:38.266Z,21.50
2019-05-06T06:32:38.251Z,15.60
2019-05-06T06:33:38.228Z,17.40
2019-05-06T06:34:38.207Z,18.80
2019-05-06T06:35:38.181Z,15.40
2019-05-06T06:36:38.163Z,15.70
2019-05-06T06:37:38.141Z,16.70
2019-05-06T06:38:38.122Z,16.50
2019-05-06T06:39:38.101Z,18.00
2019-05-06T06:40:38.077Z,16.20
2019-05-06T06:41:38.057Z,18.00
2019-05-06T06:42:38.039Z,17.30
2019-05-06T06:43:38.018Z,16.50
2019-05-06T06:44:37.995Z,20.40
2019-05-06T06:45:37.975Z,16.10
2019-05-06T06:46:37.956Z,16.30
2019-05-06T06:47:37.937Z,18.00
2019-05-06T06:48:37.917Z,17.30
2019-05-06T06:49:37.900Z,19.80
2019-05-06T06:50:37.878Z,22.90
2019-05-06T06:51:37.854Z,28.80
2019-05-06T06:52:37.833Z,17.30
2019-05-06T06:53:37.820Z,18.80
2019-05-06T06:54:37.801Z,21.10
2019-05-06T06:55:37.815Z,20.70
2019-05-06T06:56:37.757Z,18.20
2019-05-06T06:57:37.738Z,17.40
2019-05-06T06:58:37.716Z,17.60
2019-05-06T06:59:37.691Z,17.00
2019-05-06T07:00:37.674Z,16.90
2019-05-06T07:01:37.658Z,19.30
2019-05-06T07:02:37.643Z,20.80
2019-05-06T07:03:37.615Z,16.40
2019-05-06T07:04:37.591Z,18.00
2019-05-06T07:05:37.572Z,18.70
2019-05-06T07:06:37.553Z,16.40
2019-05-06T07:07:43.691Z,15.30
2019-05-06T07:08:37.943Z,18.40
2019-05-06T07:09:37.495Z,15.90
2019-05-06T07:10:37.490Z,17.60
2019-05-06T07:11:37.461Z,16.50
2019-05-06T07:12:37.437Z,18.80
2019-05-06T07:13:37.426Z,15.70
2019-05-06T07:14:37.720Z,16.10
2019-05-06T07:15:37.701Z,17.50
2019-05-06T07:16:37.364Z,15.10
2019-05-06T07:17:37.884Z,15.20
2019-05-06T07:18:37.332Z,15.20
2019-05-06T07:19:37.308Z,15.10
2019-05-06T07:20:37.289Z,14.70
2019-05-06T07:21:37.471Z,16.90
2019-05-06T07:22:37.262Z,15.30
2019-05-06T07:23:37.246Z,16.50
2019-05-06T07:24:37.220Z,16.00
2019-05-06T07:25:37.202Z,17.00
2019-05-06T07:26:37.183Z,16.20
2019-05-06T07:27:37.166Z,15.90
2019-05-06T07:28:37.147Z,14.20
2019-05-06T07:29:37.150Z,14.20
2019-05-06T07:30:37.122Z,15.30
2019-05-06T07:31:37.100Z,15.80
2019-05-06T07:32:37.076Z,15.80
2019-05-06T07:33:37.064Z,16.50
2019-05-06T07:34:37.045Z,15.00
2019-05-06T07:35:40.909Z,14.90
2019-05-06T07:36:37.006Z,17.80
2019-05-06T07:37:36.992Z,18.70
2019-05-06T07:38:36.976Z,15.30
2019-05-06T07:39:36.956Z,16.00
2019-05-06T07:40:36.939Z,17.10
2019-05-06T07:41:36.936Z,14.10
2019-05-06T07:42:37.125Z,13.00
2019-05-06T07:43:37.215Z,15.30
2019-05-06T07:44:37.081Z,14.80
2019-05-06T07:45:36.852Z,14.00
2019-05-06T07:46:36.842Z,15.30
2019-05-06T07:47:36.819Z,15.30
2019-05-06T07:48:37.128Z,13.90
2019-05-06T07:49:36.794Z,16.50
2019-05-06T07:50:36.783Z,14.10
2019-05-06T07:51:36.751Z,14.10
2019-05-06T07:52:36.739Z,13.30
2019-05-06T07:53:36.728Z,13.70
2019-05-06T07:54:36.713Z,17.10
2019-05-06T07:55:36.704Z,13.80
2019-05-06T07:56:36.981Z,14.80
2019-05-06T07:57:36.649Z,12.70
2019-05-06T07:58:36.703Z,16.80
2019-05-06T07:59:36.826Z,15.40
2019-05-06T08:00:36.813Z,14.50
2019-05-06T08:01:37.108Z,14.20
2019-05-06T08:02:36.597Z,13.70
2019-05-06T08:03:36.756Z,16.90
2019-05-06T08:24:02.757Z,12.10
2019-05-06T08:25:03.457Z,11.00
2019-05-06T08:26:11.610Z,11.70
2019-05-06T08:27:02.920Z,13.30
2019-05-06T08:28:02.311Z,10.60
2019-05-06T08:29:02.813Z,11.50
2019-05-06T08:30:02.431Z,13.00
2019-05-06T08:31:02.354Z,13.20
2019-05-06T08:32:02.964Z,9.70
2019-05-06T08:33:02.254Z,13.20
2019-05-06T08:34:02.660Z,11.10
2019-05-06T08:35:03.388Z,10.50
2019-05-06T08:36:08.883Z,12.70
2019-05-06T08:37:02.468Z,12.30
2019-05-06T08:38:02.406Z,11.10
2019-05-06T08:39:02.821Z,11.80
2019-05-06T08:40:03.343Z,10.80
2019-05-06T08:41:02.736Z,10.80
2019-05-06T08:42:02.698Z,10.40
2019-05-06T08:43:02.199Z,11.80
2019-05-06T08:44:02.653Z,10.50
2019-05-06T08:45:02.210Z,10.50
2019-05-06T08:46:03.243Z,8.40
2019-05-06T08:47:02.534Z,7.80
2019-05-06T08:48:02.972Z,9.80
2019-05-06T08:49:03.031Z,16.20
2019-05-06T08:50:02.450Z,10.20
2019-05-06T08:51:02.719Z,8.80
2019-05-06T08:52:02.437Z,9.20
2019-05-06T08:53:04.840Z,7.50
2019-05-06T08:54:03.032Z,6.40
2019-05-06T08:55:04.314Z,6.00
2019-05-06T08:56:01.972Z,5.90
2019-05-06T08:57:02.576Z,9.20
2019-05-06T08:58:02.953Z,5.80
2019-05-06T08:59:02.997Z,5.40
2019-05-06T09:00:03.417Z,7.90
2019-05-06T09:01:02.803Z,6.00
2019-05-06T09:02:03.144Z,8.10
2019-05-06T09:03:04.036Z,8.10
2019-05-06T09:04:11.853Z,6.90
2019-05-06T09:05:02.996Z,6.70
2019-05-06T09:06:03.160Z,20.50
2019-05-06T09:07:02.957Z,8.50
2019-05-06T09:08:03.223Z,6.50
2019-05-06T09:09:02.356Z,10.90
2019-05-06T09:10:02.635Z,9.00
2019-05-06T09:11:03.031Z,5.80
2019-05-06T09:12:02.668Z,6.30
2019-05-06T09:13:01.994Z,9.20
2019-05-06T09:14:03.367Z,8.20
2019-05-06T09:15:03.264Z,6.20
2019-05-06T09:16:02.512Z,6.50
2019-05-06T09:17:02.801Z,7.60
2019-05-06T09:18:02.997Z,6.20
2019-05-06T09:19:04.330Z,5.30
2019-05-06T09:20:02.675Z,5.60
2019-05-06T09:21:02.955Z,8.90
2019-05-06T09:22:02.516Z,7.00
2019-05-06T09:26:02.684Z,7.40
2019-05-06T09:27:02.837Z,7.20
2019-05-06T09:28:02.581Z,8.50
2019-05-06T09:29:02.235Z,8.30
2019-05-06T09:30:02.975Z,6.80
2019-05-06T09:31:02.222Z,5.20
2019-05-06T09:32:01.795Z,6.70
2019-05-06T09:33:02.650Z,5.60
2019-05-06T09:34:02.731Z,5.50
2019-05-06T09:35:02.945Z,5.10
2019-05-06T09:36:02.822Z,4.90
2019-05-06T09:37:03.419Z,4.90
2019-05-06T09:38:02.221Z,6.60
2019-05-06T09:39:02.278Z,5.40
2019-05-06T09:40:02.743Z,6.70
2019-05-06T09:41:04.793Z,6.30
2019-05-06T09:42:02.230Z,6.80
2019-05-06T09:43:04.492Z,4.90
2019-05-06T09:44:02.947Z,5.10
2019-05-06T09:45:02.358Z,6.90
2019-05-06T09:46:02.335Z,7.90
2019-05-06T09:47:02.372Z,6.30
2019-05-06T09:48:03.142Z,5.70
2019-05-06T09:49:03.145Z,5.40
2019-05-06T09:50:02.773Z,6.60
2019-05-06T09:51:02.922Z,5.60
2019-05-06T09:52:02.531Z,5.00
2019-05-06T09:53:02.479Z,6.60
2019-05-06T09:54:03.864Z,6.80
2019-05-06T09:55:03.260Z,6.00
2019-05-06T09:56:03.140Z,5.40
2019-05-06T09:57:02.395Z,4.80
2019-05-06T09:58:03.134Z,9.00
2019-05-06T09:59:02.198Z,8.00
2019-05-06T10:00:04.590Z,7.50
2019-05-06T10:01:02.670Z,5.50
2019-05-06T10:02:00.571Z,5.90
2019-05-06T10:03:03.010Z,7.80
2019-05-06T10:04:03.262Z,8.20
2019-05-06T10:05:03.316Z,5.70
2019-05-06T10:06:02.692Z,4.80
2019-05-06T10:07:02.555Z,5.80
2019-05-06T10:08:03.090Z,6.50
2019-05-06T10:09:04.402Z,5.50
2019-05-06T10:10:00.489Z,6.40
2019-05-06T10:11:02.908Z,5.90
2019-05-06T10:12:02.082Z,5.00
2019-05-06T10:13:02.541Z,5.60
2019-05-06T10:14:02.888Z,6.80
2019-05-06T10:15:03.269Z,5.50
2019-05-06T10:16:02.835Z,4.60
2019-05-06T10:17:04.199Z,5.10
2019-05-06T10:18:04.416Z,5.90
2019-05-06T10:19:02.451Z,5.00
2019-05-06T10:20:02.580Z,6.20
2019-05-06T10:21:00.375Z,5.30
2019-05-06T10:22:00.354Z,4.60
2019-05-06T10:23:02.769Z,5.60
2019-05-06T10:24:02.195Z,6.90
2019-05-06T10:25:03.370Z,5.30
2019-05-06T10:26:04.271Z,6.00
2019-05-06T10:27:02.491Z,4.90
2019-05-06T10:28:02.742Z,16.60
2019-05-06T10:29:02.325Z,11.80
2019-05-06T10:30:03.013Z,9.60
2019-05-06T10:31:02.037Z,24.60
2019-05-06T10:32:00.241Z,9.80
2019-05-06T10:33:02.114Z,17.10
2019-05-06T10:34:02.861Z,13.80
2019-05-06T10:35:02.656Z,8.40
2019-05-06T10:36:02.466Z,7.00
2019-05-06T10:37:12.518Z,7.60
2019-05-06T10:38:00.166Z,8.60
2019-05-06T10:39:02.120Z,7.30
2019-05-06T10:40:02.850Z,7.30
2019-05-06T10:41:05.127Z,7.50
2019-05-06T10:42:00.121Z,7.30
2019-05-06T10:43:02.615Z,7.30
2019-05-06T10:44:00.095Z,14.80
2019-05-06T10:45:01.876Z,8.00
2019-05-06T10:46:01.826Z,13.30
2019-05-06T10:47:00.056Z,7.90
2019-05-06T10:48:02.190Z,7.10
2019-05-06T10:49:02.434Z,21.70
2019-05-06T10:50:02.108Z,12.90
2019-05-06T10:51:00.010Z,12.50
2019-05-06T10:52:02.066Z,8.40
2019-05-06T10:53:02.525Z,9.90
2019-05-06T10:53:59.969Z,8.10
2019-05-06T10:54:59.957Z,8.80
2019-05-06T10:56:02.147Z,8.80
2019-05-06T10:57:02.144Z,8.30
2019-05-06T10:58:02.409Z,9.00
2019-05-06T10:59:02.292Z,7.20
2019-05-06T10:59:59.895Z,7.40
2019-05-06T11:00:59.881Z,7.60
2019-05-06T11:02:05.041Z,11.80
2019-05-06T11:02:59.856Z,13.00
2019-05-06T11:03:59.840Z,10.00
2019-05-06T11:05:02.550Z,8.00
2019-05-06T11:05:59.816Z,9.40
2019-05-06T11:06:59.802Z,7.50
2019-05-06T11:07:59.789Z,9.50
2019-05-06T11:08:59.777Z,9.90
2019-05-06T11:10:02.430Z,6.90
2019-05-06T11:11:14.496Z,6.00
2019-05-06T11:11:59.736Z,14.40
2019-05-06T11:12:59.724Z,7.50
2019-05-06T11:13:59.710Z,5.40
2019-05-06T11:14:59.695Z,7.90
2019-05-06T11:15:59.682Z,5.80
2019-05-06T11:16:59.669Z,7.70
2019-05-06T11:18:04.029Z,7.40
2019-05-06T11:18:59.641Z,6.70
2019-05-06T11:19:59.627Z,9.20
2019-05-06T11:20:59.614Z,7.30
2019-05-06T11:21:59.604Z,8.30
2019-05-06T11:23:01.925Z,8.40
2019-05-06T11:23:59.576Z,9.30
2019-05-06T11:24:59.564Z,10.00
2019-05-06T11:25:59.546Z,8.30
2019-05-06T11:26:59.538Z,8.00
2019-05-06T11:27:59.519Z,9.40
2019-05-06T11:28:59.506Z,8.90
2019-05-06T11:29:59.487Z,7.80
2019-05-06T11:30:59.473Z,10.60
2019-05-06T11:31:59.460Z,8.10
2019-05-06T11:32:59.447Z,8.80
2019-05-06T11:33:59.435Z,9.40
2019-05-06T11:34:59.433Z,7.40
2019-05-06T11:35:59.403Z,6.70
2019-05-06T11:36:59.385Z,6.70
2019-05-06T11:37:59.381Z,8.60
2019-05-06T11:38:59.359Z,8.70
2019-05-06T11:39:59.357Z,8.40
2019-05-06T11:40:59.335Z,7.10
2019-05-06T11:42:22.910Z,7.00
2019-05-06T11:42:59.301Z,7.20
2019-05-06T11:43:59.288Z,6.70
2019-05-06T11:44:59.273Z,7.90
2019-05-06T11:45:59.261Z,9.00
2019-05-06T11:46:59.248Z,7.30
2019-05-06T11:47:59.231Z,7.30
2019-05-06T11:48:59.223Z,6.20
2019-05-06T11:49:59.202Z,6.20
2019-05-06T11:50:59.189Z,6.30
2019-05-06T11:51:59.174Z,7.50
2019-05-06T11:52:59.170Z,7.10
2019-05-06T11:53:59.146Z,7.80
2019-05-06T11:54:59.138Z,6.40
2019-05-06T11:55:59.116Z,8.20
2019-05-06T11:56:59.102Z,7.40
2019-05-06T11:57:59.093Z,8.60
2019-05-06T11:58:59.074Z,7.70
2019-05-06T11:59:59.059Z,8.40
2019-05-06T12:00:59.042Z,7.00
2019-05-06T12:01:59.031Z,7.80
2019-05-06T12:02:59.013Z,8.00
2019-05-06T12:03:59.054Z,8.90
2019-05-06T12:04:58.989Z,9.70
2019-05-06T12:05:58.975Z,7.60
2019-05-06T12:07:10.284Z,7.60
2019-05-06T12:08:04.684Z,7.60
2019-05-06T12:08:58.930Z,9.40
2019-05-06T12:09:58.913Z,11.80
2019-05-06T12:10:58.918Z,13.40
2019-05-06T12:11:58.888Z,17.20
2019-05-06T12:12:58.879Z,9.30
2019-05-06T12:13:58.858Z,11.40
2019-05-06T12:14:58.847Z,8.40
2019-05-06T12:15:58.826Z,9.40
2019-05-06T12:16:58.817Z,9.90
2019-05-06T12:17:58.808Z,9.30
2019-05-06T12:18:59.957Z,10.10
2019-05-06T12:19:58.766Z,9.60
2019-05-06T12:21:09.024Z,9.70
2019-05-06T12:21:58.736Z,9.30
2019-05-06T12:22:58.729Z,9.90
2019-05-06T12:23:58.706Z,12.20
2019-05-06T12:24:58.690Z,10.20
2019-05-06T12:25:58.677Z,13.40
2019-05-06T12:26:58.663Z,16.70
2019-05-06T12:27:58.647Z,13.40
2019-05-06T12:28:58.631Z,9.80
2019-05-06T12:29:58.619Z,8.50
2019-05-06T12:30:58.604Z,7.70
2019-05-06T12:31:58.591Z,10.20
2019-05-06T12:32:58.575Z,7.20
2019-05-06T12:33:58.564Z,10.00
2019-05-06T12:34:58.551Z,10.90
2019-05-06T12:35:58.537Z,8.30
2019-05-06T12:36:58.520Z,8.90
2019-05-06T12:37:58.514Z,8.60
2019-05-06T12:38:58.497Z,9.50
2019-05-06T12:39:58.501Z,11.40
2019-05-06T12:41:00.036Z,8.90
2019-05-06T12:41:58.448Z,11.80
2019-05-06T12:42:58.431Z,8.50
2019-05-06T12:43:58.420Z,10.30
2019-05-06T12:44:58.404Z,9.00
2019-05-06T12:45:58.390Z,8.20
2019-05-06T12:47:00.062Z,8.50
2019-05-06T12:47:58.367Z,10.90
2019-05-06T12:48:58.348Z,9.70
2019-05-06T12:49:58.335Z,8.30
2019-05-06T12:50:58.319Z,9.20
2019-05-06T12:51:58.302Z,10.40
2019-05-06T12:52:58.309Z,9.50
2019-05-06T12:53:58.277Z,10.60
2019-05-06T12:55:14.652Z,9.10
2019-05-06T12:55:58.251Z,10.70
2019-05-06T12:56:58.244Z,9.60
2019-05-06T12:57:58.235Z,9.70
2019-05-06T12:58:58.209Z,9.40
2019-05-06T12:59:58.190Z,10.50
2019-05-06T13:00:58.183Z,9.60
2019-05-06T13:01:58.171Z,9.20
2019-05-06T13:02:58.149Z,9.90
2019-05-06T13:03:58.135Z,11.30
2019-05-06T13:05:00.816Z,13.90
2019-05-06T13:05:58.108Z,14.20
2019-05-06T13:06:58.102Z,9.80
2019-05-06T13:07:58.079Z,11.20
2019-05-06T13:09:01.746Z,10.10
2019-05-06T13:09:58.052Z,9.70
2019-05-06T13:10:58.038Z,11.60
2019-05-06T13:11:58.024Z,11.70
2019-05-06T13:12:58.008Z,10.40
2019-05-06T13:14:00.818Z,10.70
2019-05-06T13:14:57.978Z,8.80
2019-05-06T13:15:57.965Z,8.80
2019-05-06T13:16:57.948Z,11.10
2019-05-06T13:17:57.944Z,10.80
2019-05-06T13:18:57.924Z,9.10
2019-05-06T13:19:57.908Z,9.90
2019-05-06T13:20:57.961Z,9.60
2019-05-06T13:21:57.882Z,8.90
2019-05-06T13:22:57.870Z,8.60
2019-05-06T13:23:57.850Z,10.10